createdAt,value
2018-12-05T00:00:23.037Z,19.42
2018-12-05T00:02:52.174Z,22.27
2018-12-05T00:05:21.998Z,17.70
2018-12-05T00:07:51.987Z,21.90
2018-12-05T00:10:21.900Z,16.25
2018-12-05T00:12:51.991Z,18.82
2018-12-05T00:15:22.165Z,18.23
2018-12-05T00:17:51.999Z,24.20
2018-12-05T00:20:22.062Z,17.82
2018-12-05T00:22:52.120Z,25.88
2018-12-05T00:25:22.172Z,12.07
2018-12-05T00:27:52.107Z,15.53
2018-12-05T00:30:22.148Z,20.07
2018-12-05T00:32:52.188Z,10.82
2018-12-05T00:35:22.151Z,11.90
2018-12-05T00:37:52.738Z,15.90
2018-12-05T00:40:22.122Z,19.13
2018-12-05T00:42:52.221Z,15.10
2018-12-05T00:45:22.184Z,11.83
2018-12-05T00:47:52.222Z,13.68
2018-12-05T00:50:22.228Z,14.23
2018-12-05T00:52:52.404Z,13.30
2018-12-05T00:55:22.286Z,10.93
2018-12-05T00:57:52.368Z,7.85
2018-12-05T01:00:22.257Z,9.58
2018-12-05T01:02:52.312Z,5.97
2018-12-05T01:05:22.389Z,8.53
2018-12-05T01:07:52.516Z,7.30
2018-12-05T01:10:22.584Z,6.80
2018-12-05T01:12:52.447Z,5.67
2018-12-05T01:15:22.459Z,6.35
2018-12-05T01:17:52.568Z,8.08
2018-12-05T01:20:22.642Z,6.75
2018-12-05T01:22:52.531Z,7.80
2018-12-05T01:25:22.564Z,6.95
2018-12-05T01:27:52.617Z,9.53
2018-12-05T01:30:22.643Z,6.03
2018-12-05T01:32:52.637Z,10.32
2018-12-05T01:35:22.817Z,9.17
2018-12-05T01:37:52.722Z,13.15
2018-12-05T01:40:22.669Z,9.33
2018-12-05T01:42:52.801Z,8.75
2018-12-05T01:45:22.766Z,9.83
2018-12-05T01:47:52.855Z,7.25
2018-12-05T01:50:22.811Z,7.80
2018-12-05T01:52:52.902Z,8.53
2018-12-05T01:55:23.210Z,4.87
2018-12-05T01:57:53.099Z,7.42
2018-12-05T02:00:23.110Z,5.33
2018-12-05T02:02:52.237Z,8.13
2018-12-05T02:05:21.344Z,7.47
2018-12-05T02:07:50.444Z,10.07
2018-12-05T02:10:19.580Z,9.37
2018-12-05T02:12:48.737Z,11.07
2018-12-05T02:15:17.894Z,10.50
2018-12-05T02:17:47.051Z,11.12
2018-12-05T02:20:16.283Z,14.43
2018-12-05T02:22:45.394Z,9.53
2018-12-05T02:25:14.691Z,9.50
2018-12-05T02:27:43.816Z,9.17
2018-12-05T02:30:13.070Z,8.83
2018-12-05T02:32:42.441Z,8.70
2018-12-05T02:35:11.542Z,8.37
2018-12-05T02:37:40.696Z,11.17
2018-12-05T02:40:09.813Z,7.53
2018-12-05T02:42:38.955Z,9.25
2018-12-05T02:45:08.237Z,9.60
2018-12-05T02:47:37.355Z,9.17
2018-12-05T02:50:06.603Z,12.83
2018-12-05T02:52:35.815Z,12.53
2018-12-05T02:55:05.052Z,9.10
2018-12-05T02:57:34.182Z,8.00
2018-12-05T03:00:03.429Z,7.12
2018-12-05T03:02:32.522Z,7.37
2018-12-05T03:05:01.694Z,10.00
2018-12-05T03:07:30.852Z,9.67
2018-12-05T03:09:59.996Z,10.10
2018-12-05T03:12:29.102Z,9.03
2018-12-05T03:15:30.107Z,8.17
2018-12-05T03:17:59.311Z,6.97
2018-12-05T03:20:28.436Z,8.53
2018-12-05T03:22:57.582Z,8.30
2018-12-05T03:25:26.744Z,10.00
2018-12-05T03:27:55.873Z,8.53
2018-12-05T03:30:25.069Z,8.30
2018-12-05T03:32:54.246Z,7.13
2018-12-05T03:35:29.128Z,6.30
2018-12-05T03:37:58.218Z,8.10
2018-12-05T03:40:27.425Z,6.93
2018-12-05T03:42:56.671Z,6.27
2018-12-05T03:45:25.978Z,11.88
2018-12-05T03:47:55.109Z,6.67
2018-12-05T03:50:24.328Z,7.63
2018-12-05T03:52:53.900Z,6.45
2018-12-05T03:55:23.952Z,8.55
2018-12-05T03:57:53.966Z,5.90
2018-12-05T04:00:23.937Z,6.47
2018-12-05T04:02:54.024Z,7.03
2018-12-05T04:05:24.042Z,11.12
2018-12-05T04:07:54.120Z,5.80
2018-12-05T04:10:24.098Z,5.30
2018-12-05T04:12:54.153Z,5.15
2018-12-05T04:15:25.476Z,5.35
2018-12-05T04:17:54.629Z,9.70
2018-12-05T04:20:24.143Z,4.75
2018-12-05T04:22:54.218Z,7.28
2018-12-05T04:25:24.205Z,5.03
2018-12-05T04:27:54.495Z,7.10
2018-12-05T04:30:24.359Z,5.95
2018-12-05T04:32:54.237Z,5.87
2018-12-05T04:35:24.271Z,7.12
2018-12-05T04:37:54.281Z,10.70
2018-12-05T04:40:24.285Z,7.97
2018-12-05T04:42:54.308Z,12.15
2018-12-05T04:45:24.444Z,6.20
2018-12-05T04:47:54.433Z,10.75
2018-12-05T04:50:24.477Z,7.08
2018-12-05T04:52:54.392Z,6.45
2018-12-05T04:55:24.441Z,8.63
2018-12-05T04:57:54.494Z,9.05
2018-12-05T05:00:24.475Z,9.68
2018-12-05T05:02:54.606Z,7.33
2018-12-05T05:05:24.557Z,7.97
2018-12-05T05:07:54.536Z,8.55
2018-12-05T05:10:24.694Z,9.33
2018-12-05T05:12:54.677Z,9.45
2018-12-05T05:15:24.608Z,10.48
2018-12-05T05:17:53.687Z,10.60
2018-12-05T05:20:22.985Z,10.93
2018-12-05T05:22:52.081Z,7.55
2018-12-05T05:25:21.820Z,8.10
2018-12-05T05:27:51.269Z,7.57
2018-12-05T05:30:20.414Z,10.60
2018-12-05T05:32:53.095Z,8.67
2018-12-05T05:35:22.944Z,11.12
2018-12-05T05:37:52.031Z,9.77
2018-12-05T05:40:21.275Z,10.60
2018-12-05T05:42:50.416Z,14.45
2018-12-05T05:45:19.503Z,11.40
2018-12-05T05:47:48.673Z,10.43
2018-12-05T05:50:17.769Z,13.43
2018-12-05T05:52:46.890Z,10.47
2018-12-05T05:55:16.010Z,12.93
2018-12-05T05:57:45.146Z,14.67
2018-12-05T06:00:14.424Z,9.67
2018-12-05T06:02:44.048Z,8.93
2018-12-05T06:05:13.161Z,11.20
2018-12-05T06:07:42.266Z,9.70
2018-12-05T06:10:11.413Z,13.87
2018-12-05T06:12:40.550Z,11.67
2018-12-05T06:15:09.736Z,19.27
2018-12-05T06:17:38.790Z,11.23
2018-12-05T06:20:08.046Z,16.60
2018-12-05T06:22:37.115Z,13.43
2018-12-05T06:25:06.852Z,14.67
2018-12-05T06:27:36.894Z,14.70
2018-12-05T06:30:06.835Z,14.27
2018-12-05T06:32:36.103Z,12.85
2018-12-05T06:35:05.448Z,12.20
2018-12-05T06:37:34.633Z,12.97
2018-12-05T06:40:03.878Z,12.60
2018-12-05T06:42:33.012Z,17.75
2018-12-05T06:45:02.094Z,12.13
2018-12-05T06:47:31.233Z,14.17
2018-12-05T06:50:00.356Z,13.43
2018-12-05T06:52:29.556Z,10.80
2018-12-05T06:54:59.518Z,16.13
2018-12-05T06:57:28.668Z,13.67
2018-12-05T06:59:58.411Z,11.75
2018-12-05T07:02:28.473Z,13.93
2018-12-05T07:09:57.334Z,11.73
2018-12-05T07:12:26.714Z,12.27
2018-12-05T07:14:56.125Z,15.40
2018-12-05T07:17:26.352Z,11.00
2018-12-05T07:19:55.925Z,15.20
2018-12-05T07:22:26.194Z,10.27
2018-12-05T07:24:55.618Z,14.00
2018-12-05T07:27:25.228Z,13.47
2018-12-05T07:29:54.696Z,11.33
2018-12-05T07:32:24.792Z,10.63
2018-12-05T07:34:54.265Z,11.20
2018-12-05T07:37:23.723Z,12.00
2018-12-05T07:39:54.599Z,9.07
2018-12-05T07:42:23.920Z,11.37
2018-12-05T07:44:55.584Z,10.75
2018-12-05T07:47:25.073Z,10.03
2018-12-05T07:49:54.392Z,15.10
2018-12-05T07:52:23.918Z,14.60
2018-12-05T07:54:53.229Z,13.03
2018-12-05T07:57:23.265Z,11.93
2018-12-05T07:59:52.603Z,12.10
2018-12-05T08:02:22.195Z,13.73
2018-12-05T08:04:51.558Z,12.20
2018-12-05T08:07:20.990Z,13.93
2018-12-05T08:09:52.209Z,10.73
2018-12-05T08:12:21.584Z,14.03
2018-12-05T08:14:51.830Z,10.57
2018-12-05T08:17:21.282Z,11.30
2018-12-05T08:19:50.616Z,12.57
2018-12-05T08:22:19.984Z,13.47
2018-12-05T08:24:49.493Z,14.97
2018-12-05T08:27:18.953Z,15.77
2018-12-05T08:29:48.348Z,18.00
2018-12-05T08:32:17.703Z,10.68
2018-12-05T08:34:48.170Z,14.63
2018-12-05T08:37:17.497Z,11.35
2018-12-05T08:39:48.613Z,11.43
2018-12-05T08:42:17.912Z,11.67
2018-12-05T08:44:48.879Z,10.33
2018-12-05T08:47:20.805Z,11.18
2018-12-05T08:49:50.159Z,10.90
2018-12-05T08:52:19.632Z,8.93
2018-12-05T08:54:52.379Z,10.57
2018-12-05T08:57:21.805Z,11.00
2018-12-05T08:59:51.245Z,11.10
2018-12-05T09:02:20.569Z,12.47
2018-12-05T09:04:51.549Z,13.30
2018-12-05T09:07:20.915Z,12.03
2018-12-05T09:09:52.093Z,11.87
2018-12-05T09:12:22.246Z,24.27
2018-12-05T09:14:51.688Z,28.27
2018-12-05T09:17:21.841Z,17.43
2018-12-05T09:19:51.264Z,19.80
2018-12-05T09:22:20.536Z,19.92
2018-12-05T09:24:49.875Z,21.52
2018-12-05T09:27:20.982Z,14.07
2018-12-05T09:29:51.181Z,14.87
2018-12-05T09:32:20.603Z,12.63
2018-12-05T09:34:49.936Z,11.83
2018-12-05T09:37:19.272Z,12.57
2018-12-05T09:39:51.108Z,13.87
2018-12-05T09:42:22.244Z,12.60
2018-12-05T09:44:51.576Z,11.97
2018-12-05T09:47:21.793Z,14.50
2018-12-05T09:49:51.176Z,15.23
2018-12-05T09:52:20.560Z,11.20
2018-12-05T09:54:49.908Z,11.40
2018-12-05T09:57:21.184Z,14.47
2018-12-05T09:59:50.515Z,16.90
2018-12-05T10:02:19.847Z,18.83
2018-12-05T10:04:51.586Z,20.30
2018-12-05T10:07:21.553Z,18.50
2018-12-05T10:09:52.354Z,14.03
2018-12-05T10:12:22.583Z,12.33
2018-12-05T10:14:54.042Z,13.77
2018-12-05T10:17:23.393Z,17.70
2018-12-05T10:19:52.596Z,13.00
2018-12-05T10:22:22.655Z,15.13
2018-12-05T10:24:51.983Z,13.00
2018-12-05T10:27:22.055Z,14.00
2018-12-05T10:29:51.417Z,15.33
2018-12-05T10:32:20.828Z,12.40
2018-12-05T10:34:50.145Z,17.57
2018-12-05T10:37:21.152Z,17.63
2018-12-05T10:39:50.609Z,12.33
2018-12-05T10:42:19.975Z,12.53
2018-12-05T10:44:51.941Z,12.90
2018-12-05T10:47:21.347Z,11.40
2018-12-05T10:49:50.831Z,12.53
2018-12-05T10:52:23.643Z,13.27
2018-12-05T10:54:53.409Z,13.70
2018-12-05T10:57:23.889Z,13.63
2018-12-05T10:59:54.593Z,13.90
2018-12-05T11:02:30.146Z,17.40
2018-12-05T11:05:08.542Z,13.50
2018-12-05T11:07:44.832Z,16.15
2018-12-05T11:10:19.503Z,12.30
2018-12-05T11:12:54.021Z,15.13
2018-12-05T11:15:28.570Z,11.67
2018-12-05T11:18:03.249Z,14.50
2018-12-05T11:20:39.100Z,15.38
2018-12-05T11:23:14.631Z,13.80
2018-12-05T11:25:48.214Z,17.30
2018-12-05T11:28:17.698Z,17.32
2018-12-05T11:30:49.058Z,19.70
2018-12-05T11:33:18.569Z,19.32
2018-12-05T11:35:50.013Z,13.80
2018-12-05T11:38:19.363Z,14.25
2018-12-05T11:40:48.819Z,16.73
2018-12-05T11:43:19.873Z,17.97
2018-12-05T11:45:50.960Z,14.57
2018-12-05T11:48:20.434Z,21.17
2018-12-05T11:50:49.834Z,14.47
2018-12-05T11:53:19.956Z,14.57
2018-12-05T11:55:49.328Z,18.77
2018-12-05T11:58:18.789Z,15.40
2018-12-05T12:00:49.113Z,17.05
2018-12-05T12:03:19.306Z,16.97
2018-12-05T12:05:50.353Z,14.38
2018-12-05T12:08:21.383Z,15.03
2018-12-05T12:10:52.049Z,12.77
2018-12-05T12:13:21.392Z,21.77
2018-12-05T12:15:50.989Z,27.90
2018-12-05T12:18:20.397Z,37.00
2018-12-05T12:20:49.780Z,27.20
2018-12-05T12:23:19.307Z,22.98
2018-12-05T12:25:48.729Z,17.25
2018-12-05T12:28:18.310Z,16.87
2018-12-05T12:30:47.639Z,15.50
2018-12-05T12:33:17.955Z,17.30
2018-12-05T12:35:47.481Z,18.70
2018-12-05T12:38:16.951Z,13.20
2018-12-05T12:40:46.336Z,14.37
2018-12-05T12:43:15.840Z,13.63
2018-12-05T12:45:45.144Z,14.87
2018-12-05T12:48:14.469Z,19.73
2018-12-05T12:50:43.745Z,22.93
2018-12-05T12:53:13.043Z,17.37
2018-12-05T12:55:42.518Z,15.63
2018-12-05T12:58:11.891Z,14.98
2018-12-05T13:00:42.193Z,16.30
2018-12-05T13:03:13.044Z,18.40
2018-12-05T13:05:42.437Z,17.53
2018-12-05T13:08:13.442Z,16.32
2018-12-05T13:10:44.497Z,13.80
2018-12-05T13:13:16.865Z,12.68
2018-12-05T13:15:47.937Z,16.80
2018-12-05T13:18:19.695Z,12.95
2018-12-05T13:20:49.474Z,14.80
2018-12-05T13:23:18.975Z,19.40
2018-12-05T13:25:48.419Z,17.48
2018-12-05T13:28:17.784Z,24.03
2018-12-05T13:30:48.552Z,23.27
2018-12-05T13:33:18.667Z,14.45
2018-12-05T13:35:48.039Z,14.27
2018-12-05T13:38:19.242Z,15.67
2018-12-05T13:40:48.629Z,12.78
2018-12-05T13:43:18.909Z,13.93
2018-12-05T13:45:48.246Z,13.23
2018-12-05T13:48:21.268Z,14.35
2018-12-05T13:50:51.390Z,15.30
2018-12-05T13:53:22.656Z,13.67
2018-12-05T13:55:52.774Z,12.50
2018-12-05T13:58:22.119Z,9.10
2018-12-05T14:00:51.526Z,14.83
2018-12-05T14:03:23.621Z,12.70
2018-12-05T14:05:53.126Z,12.43
2018-12-05T14:08:23.331Z,10.47
2018-12-05T14:10:56.619Z,12.78
2018-12-05T14:13:41.463Z,11.37
2018-12-05T14:16:11.062Z,10.90
2018-12-05T14:18:40.513Z,12.80
2018-12-05T14:21:09.896Z,11.45
2018-12-05T14:23:40.148Z,11.10
2018-12-05T14:26:11.874Z,11.54
2018-12-05T14:28:42.895Z,12.15
2018-12-05T14:31:12.201Z,13.70
2018-12-05T14:33:41.535Z,13.90
2018-12-05T14:36:10.876Z,10.40
2018-12-05T14:38:40.291Z,12.17
2018-12-05T14:41:09.678Z,12.33
2018-12-05T14:43:39.089Z,13.53
2018-12-05T14:46:08.557Z,15.13
2018-12-05T14:48:39.761Z,13.00
2018-12-05T14:51:09.188Z,16.70
2018-12-05T14:53:39.274Z,14.93
2018-12-05T14:56:08.676Z,12.47
2018-12-05T14:58:38.084Z,11.45
2018-12-05T15:01:10.943Z,11.00
2018-12-05T15:03:41.087Z,16.07
2018-12-05T15:06:11.308Z,17.40
2018-12-05T15:08:40.619Z,10.80
2018-12-05T15:11:10.120Z,13.25
2018-12-05T15:13:41.273Z,13.07
2018-12-05T15:16:10.633Z,8.90
2018-12-05T15:18:40.269Z,13.70
2018-12-05T15:21:09.720Z,15.60
2018-12-05T15:23:41.233Z,9.70
2018-12-05T15:26:11.969Z,21.00
2018-12-05T15:28:43.069Z,7.77
2018-12-05T15:31:12.471Z,14.00
2018-12-05T15:33:42.623Z,16.57
2018-12-05T15:36:12.192Z,15.60
2018-12-05T15:38:41.548Z,16.13
2018-12-05T15:41:11.092Z,11.93
2018-12-05T15:43:40.476Z,12.58
2018-12-05T15:46:11.561Z,14.45
2018-12-05T15:48:44.403Z,12.50
2018-12-05T15:51:14.519Z,17.10
2018-12-05T15:53:43.982Z,8.13
2018-12-05T15:56:14.188Z,11.93
2018-12-05T15:58:46.210Z,12.68
2018-12-05T16:01:15.720Z,13.60
2018-12-05T16:03:45.186Z,14.77
2018-12-05T16:06:15.672Z,7.25
2018-12-05T16:08:45.215Z,13.20
2018-12-05T16:11:15.485Z,13.70
2018-12-05T16:13:47.378Z,16.60
2018-12-05T16:16:18.396Z,8.73
2018-12-05T16:18:48.678Z,9.60
2018-12-05T16:21:19.720Z,10.40
2018-12-05T16:23:49.811Z,10.60
2018-12-05T16:29:01.329Z,12.20
2018-12-05T16:31:32.398Z,15.23
2018-12-05T16:34:01.951Z,14.00
2018-12-05T16:36:31.504Z,10.27
2018-12-05T16:39:01.671Z,13.90
2018-12-05T16:41:32.308Z,9.53
2018-12-05T16:44:02.436Z,9.80
2018-12-05T16:46:31.812Z,11.07
2018-12-05T16:49:01.179Z,11.00
2018-12-05T16:51:31.345Z,14.43
2018-12-05T16:54:00.721Z,13.13
2018-12-05T16:56:30.058Z,12.73
2018-12-05T16:58:59.497Z,8.60
2018-12-05T17:01:28.836Z,6.47
2018-12-05T17:03:59.081Z,10.63
2018-12-05T17:06:28.411Z,11.00
2018-12-05T17:09:01.398Z,10.70
2018-12-05T17:11:31.014Z,10.50
2018-12-05T17:14:00.384Z,11.80
2018-12-05T17:16:29.764Z,13.73
2018-12-05T17:18:59.943Z,10.03
2018-12-05T17:21:29.359Z,8.30
2018-12-05T17:23:59.699Z,16.47
2018-12-05T17:26:29.139Z,9.40
2018-12-05T17:29:00.115Z,17.52
2018-12-05T17:31:29.507Z,8.40
2018-12-05T17:34:00.453Z,9.83
2018-12-05T17:36:30.645Z,10.27
2018-12-05T17:39:00.047Z,13.13
2018-12-05T17:41:29.515Z,9.80
2018-12-05T17:43:59.664Z,11.67
2018-12-05T17:46:29.064Z,10.47
2018-12-05T17:48:59.363Z,8.87
2018-12-05T17:51:28.857Z,12.03
2018-12-05T17:53:58.227Z,15.70
2018-12-05T17:56:27.600Z,15.18
2018-12-05T17:58:59.488Z,19.37
2018-12-05T18:01:29.554Z,25.87
2018-12-05T18:03:59.042Z,16.70
2018-12-05T18:06:28.418Z,20.73
2018-12-05T18:08:57.827Z,19.77
2018-12-05T18:11:27.968Z,15.97
2018-12-05T18:13:57.338Z,14.50
2018-12-05T18:16:26.818Z,9.40
2018-12-05T18:18:57.892Z,11.20
2018-12-05T18:21:27.317Z,9.70
2018-12-05T18:23:56.805Z,11.90
2018-12-05T18:26:26.206Z,9.50
2018-12-05T18:28:55.702Z,9.57
2018-12-05T18:31:25.980Z,9.93
2018-12-05T18:33:55.383Z,10.23
2018-12-05T18:36:25.230Z,7.83
2018-12-05T18:38:54.584Z,12.23
2018-12-05T18:41:23.975Z,8.80
2018-12-05T18:43:53.371Z,9.93
2018-12-05T18:46:22.754Z,11.78
2018-12-05T18:48:52.277Z,18.90
2018-12-05T18:51:21.699Z,10.93
2018-12-05T18:53:51.178Z,9.27
2018-12-05T18:56:20.573Z,8.73
2018-12-05T18:58:52.559Z,13.53
2018-12-05T19:01:22.772Z,10.72
2018-12-05T19:03:54.033Z,17.37
2018-12-05T19:06:23.379Z,6.67
2018-12-05T19:08:52.856Z,12.20
2018-12-05T19:11:23.361Z,12.03
2018-12-05T19:13:58.689Z,9.45
2018-12-05T19:16:28.150Z,10.83
2018-12-05T19:18:57.997Z,7.33
2018-12-05T19:21:28.140Z,10.17
2018-12-05T19:23:58.798Z,7.37
2018-12-05T19:26:28.201Z,13.73
2018-12-05T19:29:00.140Z,14.43
2018-12-05T19:31:30.346Z,23.60
2018-12-05T19:33:59.624Z,21.80
2018-12-05T19:36:29.901Z,16.00
2018-12-05T19:38:59.361Z,21.50
2018-12-05T19:41:30.552Z,11.10
2018-12-05T19:43:59.927Z,17.73
2018-12-05T19:46:29.302Z,7.70
2018-12-05T19:48:59.397Z,12.60
2018-12-05T19:51:28.850Z,9.70
2018-12-05T19:53:58.500Z,12.60
2018-12-05T19:56:29.757Z,11.47
2018-12-05T19:59:00.110Z,8.53
2018-12-05T20:01:30.201Z,11.90
2018-12-05T20:03:59.657Z,9.60
2018-12-05T20:06:29.952Z,10.60
2018-12-05T20:09:00.170Z,14.87
2018-12-05T20:14:24.748Z,16.60
2018-12-05T20:16:56.093Z,10.10
2018-12-05T20:19:27.633Z,15.50
2018-12-05T20:21:57.866Z,16.80
2018-12-05T20:24:27.253Z,13.50
2018-12-05T20:26:56.819Z,14.40
2018-12-05T20:29:28.125Z,16.33
2018-12-05T20:31:57.746Z,12.20
2018-12-05T20:34:27.278Z,12.10
2018-12-05T20:36:58.452Z,24.80
2018-12-05T20:39:30.651Z,10.90
2018-12-05T20:42:04.344Z,17.50
2018-12-05T20:44:35.371Z,13.60
2018-12-05T20:47:05.861Z,15.60
2018-12-05T20:49:35.473Z,23.53
2018-12-05T20:52:05.667Z,27.53
2018-12-05T20:54:35.194Z,20.37
2018-12-05T20:57:07.253Z,16.17
2018-12-05T20:59:36.756Z,12.90
2018-12-05T21:02:08.789Z,11.70
2018-12-05T21:04:38.263Z,11.07
2018-12-05T21:07:07.791Z,13.33
2018-12-05T21:09:37.294Z,17.97
2018-12-05T21:12:06.793Z,13.30
2018-12-05T21:14:37.841Z,16.93
2018-12-05T21:17:09.743Z,8.50
2018-12-05T21:19:40.432Z,12.43
2018-12-05T21:22:10.198Z,13.17
2018-12-05T21:24:41.353Z,7.25
2018-12-05T21:27:11.194Z,7.50
2018-12-05T21:29:41.163Z,11.53
2018-12-05T21:32:10.507Z,6.60
2018-12-05T21:34:40.032Z,8.40
2018-12-05T21:37:10.496Z,11.00
2018-12-05T21:39:40.184Z,12.23
2018-12-05T21:42:12.003Z,7.86
2018-12-05T21:44:43.901Z,9.70
2018-12-05T21:47:13.650Z,9.70
2018-12-05T21:49:44.595Z,6.23
2018-12-05T21:52:14.019Z,7.10
2018-12-05T21:54:44.087Z,7.50
2018-12-05T21:57:13.419Z,9.80
2018-12-05T21:59:45.413Z,11.23
2018-12-05T22:02:15.513Z,14.38
2018-12-05T22:04:46.213Z,10.90
2018-12-05T22:07:15.612Z,7.28
2018-12-05T22:09:45.025Z,7.87
2018-12-05T22:12:14.361Z,15.47
2018-12-05T22:14:43.694Z,8.57
2018-12-05T22:17:14.551Z,6.97
2018-12-05T22:19:44.024Z,6.57
2018-12-05T22:22:15.044Z,7.20
2018-12-05T22:24:46.097Z,7.60
2018-12-05T22:27:15.475Z,9.50
2018-12-05T22:29:44.951Z,9.60
2018-12-05T22:32:14.324Z,7.10
2018-12-05T22:34:43.627Z,11.53
2018-12-05T22:37:13.717Z,7.10
2018-12-05T22:39:43.251Z,8.60
2018-12-05T22:42:12.568Z,6.75
2018-12-05T22:44:43.543Z,7.70
2018-12-05T22:47:12.846Z,11.07
2018-12-05T22:49:42.929Z,11.30
2018-12-05T22:52:12.337Z,12.90
2018-12-05T22:54:42.347Z,10.07
2018-12-05T22:57:15.620Z,7.87
2018-12-05T22:59:45.774Z,7.53
2018-12-05T23:02:15.986Z,5.65
2018-12-05T23:04:46.147Z,7.70
2018-12-05T23:07:17.318Z,6.87
2018-12-05T23:09:46.767Z,13.47
2018-12-05T23:12:16.095Z,6.73
2018-12-05T23:14:45.361Z,6.45
2018-12-05T23:17:14.717Z,8.60
2018-12-05T23:19:44.191Z,7.50
2018-12-05T23:22:13.506Z,10.10
2018-12-05T23:24:42.814Z,9.60
2018-12-05T23:27:12.191Z,6.93
2018-12-05T23:29:42.525Z,5.53
2018-12-05T23:32:12.492Z,10.47
2018-12-05T23:34:43.597Z,8.20
2018-12-05T23:37:13.030Z,8.03
2018-12-05T23:39:42.523Z,8.30
2018-12-05T23:42:13.363Z,5.65
2018-12-05T23:44:43.551Z,6.33
2018-12-05T23:47:13.023Z,5.00
2018-12-05T23:49:45.192Z,4.60
2018-12-05T23:52:14.631Z,5.63
2018-12-05T23:54:43.934Z,6.07
2018-12-05T23:57:14.066Z,5.87
2018-12-05T23:59:43.355Z,10.90
